LRSV/SCV METAR and TAF weather

Enter ICAO airport designator
Station Type Date Time Source
LRSV METAR 2020/09/21 08:00 UTC NOAA

LRSV 210800Z 16007KT CAVOK 19/07 Q1022


Station Type Date Time Source
LRSV Decoded METAR 2020/09/21 08:00 UTC NOAA

Suceava / Salcea, Romania (LRSV) 47-39N 026-15E 351M
Sep 21, 2020 - 04:00 AM EDT / 2020.09.21 0800 UTC
Wind: from the SSE (160 degrees) at 8 MPH (7 KT):0
Visibility: greater than 7 mile(s):0
Temperature: 66 F (19 C)
Dew Point: 44 F (7 C)
Relative Humidity: 45%
Pressure (altimeter): 30.18 in. Hg (1022 hPa)
ob: LRSV 210800Z 16007KT CAVOK 19/07 Q1022
cycle: 8

Station Type Date Time Source
LRSV TAF 2014/07/19 18:48 UTC NOAA

TAF LRSV 191800Z 1918/2024 CNL

Example: see airport list